createdAt,value
2022-12-09T00:02:04.627Z,28.92
2022-12-09T00:04:31.448Z,28.60
2022-12-09T00:06:58.058Z,35.40
2022-12-09T00:09:24.643Z,34.65
2022-12-09T00:11:52.811Z,34.50
2022-12-09T00:14:19.384Z,33.13
2022-12-09T00:16:46.123Z,34.70
2022-12-09T00:19:13.012Z,33.03
2022-12-09T00:21:39.556Z,33.00
2022-12-09T00:24:08.030Z,36.00
2022-12-09T00:26:34.738Z,31.65
2022-12-09T00:29:01.799Z,32.33
2022-12-09T00:31:32.440Z,31.90
2022-12-09T00:34:08.940Z,31.02
2022-12-09T00:36:37.724Z,33.55
2022-12-09T00:39:04.551Z,33.70
2022-12-09T00:41:31.438Z,37.95
2022-12-09T00:43:58.877Z,38.65
2022-12-09T00:46:25.572Z,39.33
2022-12-09T00:48:53.040Z,35.63
2022-12-09T00:51:22.381Z,40.55
2022-12-09T00:53:53.487Z,40.20
2022-12-09T00:56:22.022Z,36.33
2022-12-09T00:58:48.652Z,35.92
2022-12-09T01:01:15.281Z,36.55
2022-12-09T01:03:41.977Z,34.17
2022-12-09T01:06:20.235Z,37.92
2022-12-09T01:08:47.127Z,37.25
2022-12-09T01:11:20.657Z,34.28
2022-12-09T01:13:48.915Z,35.33
2022-12-09T01:16:18.094Z,35.90
2022-12-09T01:18:45.247Z,33.45
2022-12-09T01:21:12.760Z,41.65
2022-12-09T01:23:40.005Z,39.22
2022-12-09T01:26:07.397Z,38.72
2022-12-09T01:28:36.110Z,35.83
2022-12-09T01:31:07.048Z,42.13
2022-12-09T01:33:34.182Z,38.05
2022-12-09T01:36:03.603Z,38.83
2022-12-09T01:38:30.283Z,39.58
2022-12-09T01:40:57.811Z,39.42
2022-12-09T01:43:24.419Z,36.08
2022-12-09T01:45:51.300Z,42.42
2022-12-09T01:48:26.065Z,42.13
2022-12-09T01:50:56.789Z,39.05
2022-12-09T01:53:27.557Z,44.17
2022-12-09T01:55:57.508Z,39.58
2022-12-09T01:58:24.677Z,43.60
2022-12-09T02:00:52.155Z,40.45
2022-12-09T02:03:21.575Z,49.70
2022-12-09T02:05:49.165Z,45.85
2022-12-09T02:08:18.706Z,43.70
2022-12-09T02:11:12.808Z,51.03
2022-12-09T02:13:54.774Z,45.15
2022-12-09T02:16:24.830Z,45.83
2022-12-09T02:19:01.100Z,54.10
2022-12-09T02:21:48.900Z,47.85
2022-12-09T02:24:25.155Z,46.03
2022-12-09T02:27:09.920Z,50.00
2022-12-09T02:29:54.058Z,50.13
2022-12-09T02:32:47.739Z,50.33
2022-12-09T02:35:32.545Z,52.65
2022-12-09T02:38:09.405Z,48.17
2022-12-09T02:40:50.433Z,54.75
2022-12-09T02:43:21.440Z,50.90
2022-12-09T02:45:55.011Z,52.13
2022-12-09T02:48:27.818Z,53.88
2022-12-09T02:50:57.378Z,48.03
2022-12-09T02:53:25.900Z,50.35
2022-12-09T02:55:56.197Z,52.05
2022-12-09T02:58:23.025Z,50.05
2022-12-09T03:00:52.287Z,47.78
2022-12-09T03:03:19.318Z,49.53
2022-12-09T03:06:02.761Z,51.33
2022-12-09T03:08:34.314Z,50.63
2022-12-09T03:11:05.207Z,46.75
2022-12-09T03:13:54.117Z,52.00
2022-12-09T03:16:36.749Z,49.13
2022-12-09T03:19:25.352Z,46.50
2022-12-09T03:21:57.397Z,48.35
2022-12-09T03:24:50.352Z,41.58
2022-12-09T03:29:48.516Z,45.95
2022-12-09T03:32:18.664Z,47.17
2022-12-09T03:34:48.287Z,47.70
2022-12-09T03:37:17.740Z,45.72
2022-12-09T03:39:45.630Z,46.78
2022-12-09T03:42:20.007Z,48.97
2022-12-09T03:44:58.461Z,44.88
2022-12-09T03:47:25.074Z,45.42
2022-12-09T03:49:51.984Z,45.72
2022-12-09T03:52:25.166Z,43.65
2022-12-09T03:55:05.747Z,42.90
2022-12-09T03:57:37.987Z,38.97
2022-12-09T04:00:06.394Z,36.20
2022-12-09T04:02:39.429Z,39.72
2022-12-09T04:05:06.720Z,40.45
2022-12-09T04:07:33.645Z,36.55
2022-12-09T04:10:00.461Z,42.97
2022-12-09T04:12:27.057Z,39.50
2022-12-09T04:14:53.766Z,41.17
2022-12-09T04:17:20.487Z,42.13
2022-12-09T04:19:47.262Z,43.75
2022-12-09T04:22:14.014Z,43.85
2022-12-09T04:24:40.559Z,49.38
2022-12-09T04:27:07.175Z,49.35
2022-12-09T04:29:33.726Z,42.90
2022-12-09T04:32:00.782Z,43.17
2022-12-09T04:34:27.834Z,42.65
2022-12-09T04:36:54.343Z,43.95
2022-12-09T04:39:21.159Z,38.90
2022-12-09T04:41:47.715Z,39.15
2022-12-09T04:44:14.236Z,36.35
2022-12-09T04:46:41.182Z,38.83
2022-12-09T04:49:08.187Z,35.42
2022-12-09T04:51:39.473Z,37.97
2022-12-09T04:54:07.498Z,38.28
2022-12-09T04:56:33.999Z,40.75
2022-12-09T04:59:00.466Z,39.92
2022-12-09T05:01:31.128Z,41.95
2022-12-09T05:03:58.560Z,38.33
2022-12-09T05:06:25.993Z,41.25
2022-12-09T05:08:52.877Z,40.58
2022-12-09T05:11:20.941Z,40.08
2022-12-09T05:13:47.937Z,38.95
2022-12-09T05:16:17.469Z,39.75
2022-12-09T05:18:45.741Z,42.22
2022-12-09T05:21:16.067Z,39.78
2022-12-09T05:23:43.756Z,37.67
2022-12-09T05:26:13.152Z,40.80
2022-12-09T05:28:40.289Z,38.53
2022-12-09T05:31:11.752Z,42.88
2022-12-09T05:33:38.891Z,30.00
2022-12-09T05:36:11.074Z,44.53
2022-12-09T05:38:38.166Z,43.85
2022-12-09T05:41:05.341Z,49.13
2022-12-09T05:43:34.015Z,44.13
2022-12-09T05:46:01.869Z,40.08
2022-12-09T05:48:29.041Z,40.80
2022-12-09T05:51:01.369Z,40.35
2022-12-09T05:53:29.781Z,48.88
2022-12-09T05:55:57.351Z,43.53
2022-12-09T05:58:24.673Z,46.08
2022-12-09T06:00:51.601Z,43.72
2022-12-09T06:03:18.338Z,43.42
2022-12-09T06:05:45.899Z,48.50
2022-12-09T06:08:12.757Z,49.03
2022-12-09T06:10:41.365Z,48.15
2022-12-09T06:13:08.634Z,44.55
2022-12-09T06:15:36.032Z,51.45
2022-12-09T06:18:03.163Z,42.78
2022-12-09T06:20:30.009Z,49.10
2022-12-09T06:22:57.541Z,52.30
2022-12-09T06:25:25.409Z,50.03
2022-12-09T06:27:53.894Z,58.05
2022-12-09T06:30:20.965Z,52.80
2022-12-09T06:32:47.754Z,49.50
2022-12-09T06:35:15.567Z,50.70
2022-12-09T06:37:42.987Z,49.97
2022-12-09T06:40:10.440Z,52.92
2022-12-09T06:42:37.634Z,48.33
2022-12-09T06:45:05.013Z,48.10
2022-12-09T06:47:32.797Z,48.80
2022-12-09T06:50:06.517Z,49.78
2022-12-09T06:52:37.583Z,57.33
2022-12-09T06:55:06.333Z,61.55
2022-12-09T06:57:34.649Z,62.05
2022-12-09T07:00:01.908Z,62.85
2022-12-09T07:02:34.049Z,57.40
2022-12-09T07:05:02.861Z,61.42
2022-12-09T07:07:29.905Z,65.20
2022-12-09T07:09:57.040Z,61.38
2022-12-09T07:12:24.108Z,63.42
2022-12-09T07:14:50.949Z,63.97
2022-12-09T07:17:20.073Z,63.30
2022-12-09T07:19:47.365Z,63.13
2022-12-09T07:22:14.640Z,63.05
2022-12-09T07:24:41.981Z,67.03
2022-12-09T07:27:18.608Z,60.40
2022-12-09T07:29:47.057Z,62.17
2022-12-09T07:32:14.247Z,59.92
2022-12-09T07:34:42.409Z,59.08
2022-12-09T07:37:09.965Z,56.05
2022-12-09T07:39:36.832Z,55.13
2022-12-09T07:42:03.840Z,50.40
2022-12-09T07:44:31.094Z,50.20
2022-12-09T07:46:58.429Z,52.17
2022-12-09T07:49:25.737Z,52.40
2022-12-09T07:51:52.799Z,49.20
2022-12-09T07:54:20.525Z,48.50
2022-12-09T07:56:47.975Z,46.58
2022-12-09T07:59:15.531Z,47.95
2022-12-09T08:01:43.131Z,48.65
2022-12-09T08:04:10.281Z,42.55
2022-12-09T08:06:38.018Z,50.50
2022-12-09T08:09:08.154Z,53.47
2022-12-09T08:11:35.085Z,45.67
2022-12-09T08:14:10.807Z,48.08
2022-12-09T08:16:40.513Z,43.45
2022-12-09T08:19:08.083Z,49.75
2022-12-09T08:21:35.163Z,47.30
2022-12-09T08:24:06.010Z,46.00
2022-12-09T08:26:34.548Z,43.20
2022-12-09T08:29:01.946Z,47.92
2022-12-09T08:31:29.094Z,55.60
2022-12-09T08:33:56.825Z,42.03
2022-12-09T08:36:26.440Z,42.58
2022-12-09T08:38:53.736Z,47.95
2022-12-09T08:41:35.898Z,49.25
2022-12-09T08:44:11.375Z,47.80
2022-12-09T08:46:40.201Z,45.08
2022-12-09T08:49:08.146Z,43.25
2022-12-09T08:51:35.679Z,49.03
2022-12-09T08:54:03.626Z,45.67
2022-12-09T08:56:30.664Z,45.95
2022-12-09T08:58:58.040Z,42.90
2022-12-09T09:01:32.338Z,47.17
2022-12-09T09:04:05.447Z,45.58
2022-12-09T09:06:33.128Z,41.90
2022-12-09T09:09:00.170Z,46.40
2022-12-09T09:11:27.949Z,45.35
2022-12-09T09:13:55.293Z,46.25
2022-12-09T09:16:24.142Z,46.85
2022-12-09T09:18:52.028Z,39.55
2022-12-09T09:21:22.525Z,42.78
2022-12-09T09:23:50.155Z,39.60
2022-12-09T09:26:20.198Z,41.05
2022-12-09T09:28:48.076Z,39.55
2022-12-09T09:31:22.165Z,37.83
2022-12-09T09:33:49.831Z,33.83
2022-12-09T09:36:20.820Z,31.90
2022-12-09T09:38:49.948Z,35.35
2022-12-09T09:41:38.030Z,35.08
2022-12-09T09:44:30.614Z,33.85
2022-12-09T09:46:58.551Z,41.50
2022-12-09T09:49:34.665Z,37.03
2022-12-09T09:52:08.708Z,35.72
2022-12-09T09:54:35.689Z,37.92
2022-12-09T09:57:11.003Z,31.48
2022-12-09T10:00:00.748Z,34.58
2022-12-09T10:02:58.242Z,34.72
2022-12-09T10:05:39.206Z,35.83
2022-12-09T10:08:34.976Z,36.15
2022-12-09T10:11:17.974Z,35.72
2022-12-09T10:13:58.633Z,35.63
2022-12-09T10:16:49.552Z,35.28
2022-12-09T10:19:19.749Z,37.08
2022-12-09T10:21:48.882Z,39.25
2022-12-09T10:24:39.847Z,37.42
2022-12-09T10:27:37.647Z,42.30
2022-12-09T10:30:07.687Z,35.05
2022-12-09T10:32:36.875Z,34.55
2022-12-09T10:35:36.724Z,37.42
2022-12-09T10:38:10.436Z,37.42
2022-12-09T10:40:52.995Z,37.22
2022-12-09T10:43:41.016Z,34.70
2022-12-09T10:46:24.341Z,36.78
2022-12-09T10:48:56.287Z,38.47
2022-12-09T10:51:32.013Z,35.13
2022-12-09T10:54:23.142Z,39.55
2022-12-09T10:57:05.070Z,34.15
2022-12-09T10:59:32.269Z,35.80
2022-12-09T11:02:01.672Z,32.78
2022-12-09T11:04:41.775Z,35.40
2022-12-09T11:07:20.925Z,37.45
2022-12-09T11:09:58.832Z,33.78
2022-12-09T11:12:30.951Z,33.28
2022-12-09T11:15:04.456Z,37.30
2022-12-09T11:17:36.845Z,33.92
2022-12-09T11:20:07.549Z,33.50
2022-12-09T11:22:40.334Z,34.38
2022-12-09T11:27:57.073Z,32.65
2022-12-09T11:30:57.595Z,35.42
2022-12-09T11:33:30.731Z,31.90
2022-12-09T11:36:18.702Z,32.28
2022-12-09T11:38:48.018Z,32.08
2022-12-09T11:41:15.200Z,31.38
2022-12-09T11:43:50.161Z,26.73
2022-12-09T11:46:22.421Z,34.38
2022-12-09T11:48:55.919Z,32.28
2022-12-09T11:51:24.193Z,34.50
2022-12-09T11:53:53.599Z,37.60
2022-12-09T11:56:25.733Z,29.60
2022-12-09T11:59:17.825Z,35.47
2022-12-09T12:02:04.575Z,35.70
2022-12-09T12:04:36.250Z,32.78
2022-12-09T12:07:15.717Z,33.55
2022-12-09T12:09:56.099Z,32.10
2022-12-09T12:12:25.559Z,30.63
2022-12-09T12:14:53.869Z,36.17
2022-12-09T12:17:37.028Z,33.67
2022-12-09T12:20:04.952Z,38.70
2022-12-09T12:22:54.495Z,35.28
2022-12-09T12:25:46.616Z,38.65
2022-12-09T12:28:57.317Z,34.00
2022-12-09T12:31:40.808Z,35.07
2022-12-09T12:34:26.120Z,35.85
2022-12-09T12:37:20.026Z,37.55
2022-12-09T12:40:05.025Z,40.53
2022-12-09T12:42:38.028Z,45.42
2022-12-09T12:48:38.464Z,38.83
2022-12-09T12:51:24.690Z,37.33
2022-12-09T12:54:03.407Z,39.00
2022-12-09T12:56:44.979Z,39.80
2022-12-09T12:59:36.334Z,39.08
2022-12-09T13:02:22.965Z,38.05
2022-12-09T13:05:23.108Z,39.30
2022-12-09T13:07:55.978Z,42.03
2022-12-09T13:10:40.003Z,37.80
2022-12-09T13:13:42.385Z,42.17
2022-12-09T13:16:19.776Z,43.27
2022-12-09T13:18:48.510Z,46.92
2022-12-09T13:21:16.479Z,35.42
2022-12-09T13:24:21.489Z,42.47
2022-12-09T13:27:08.075Z,40.38
2022-12-09T13:29:39.626Z,40.05
2022-12-09T13:32:43.014Z,48.35
2022-12-09T13:35:19.657Z,56.47
2022-12-09T13:37:46.763Z,59.53
2022-12-09T13:40:35.879Z,45.35
2022-12-09T13:43:02.351Z,40.10
2022-12-09T13:45:36.811Z,37.25
2022-12-09T13:48:16.552Z,38.20
2022-12-09T13:50:51.412Z,35.78
2022-12-09T13:53:20.971Z,72.32
2022-12-09T13:56:25.169Z,54.67
2022-12-09T13:59:23.382Z,73.45
2022-12-09T14:02:01.769Z,115.70
2022-12-09T14:04:33.444Z,63.15
2022-12-09T14:07:15.790Z,55.57
2022-12-09T14:09:45.513Z,54.97
2022-12-09T14:12:34.854Z,46.70
2022-12-09T14:15:26.009Z,37.85
2022-12-09T14:18:02.333Z,37.50
2022-12-09T14:20:31.812Z,42.22
2022-12-09T14:23:07.379Z,43.78
2022-12-09T14:25:33.890Z,39.83
2022-12-09T14:28:09.640Z,38.65
2022-12-09T14:30:50.388Z,46.03
2022-12-09T14:33:29.086Z,39.15
2022-12-09T14:36:02.089Z,41.72
2022-12-09T14:38:54.357Z,39.92
2022-12-09T14:41:39.495Z,42.65
2022-12-09T14:44:49.153Z,38.20
2022-12-09T14:47:28.054Z,41.88
2022-12-09T14:49:56.226Z,38.63
2022-12-09T14:52:33.900Z,43.03
2022-12-09T14:55:04.643Z,43.47
2022-12-09T14:57:41.461Z,44.35
2022-12-09T15:00:28.362Z,45.85
2022-12-09T15:03:30.107Z,46.42
2022-12-09T15:05:55.474Z,46.40
2022-12-09T15:08:30.608Z,46.28
2022-12-09T15:10:57.842Z,47.05
2022-12-09T15:13:25.743Z,46.22
2022-12-09T15:15:53.309Z,43.55
2022-12-09T15:18:25.683Z,59.15
2022-12-09T15:20:58.451Z,50.42
2022-12-09T15:23:32.645Z,59.60
2022-12-09T15:26:06.648Z,61.30
2022-12-09T15:28:35.723Z,47.72
2022-12-09T15:31:03.997Z,52.53
2022-12-09T15:33:39.122Z,51.70
2022-12-09T15:36:09.773Z,49.05
2022-12-09T15:38:42.145Z,44.55
2022-12-09T15:41:28.371Z,48.38
2022-12-09T15:43:59.219Z,45.30
2022-12-09T15:46:27.625Z,51.42
2022-12-09T15:48:57.506Z,47.15
2022-12-09T15:51:26.402Z,44.67
2022-12-09T15:54:01.380Z,41.08
2022-12-09T15:56:37.785Z,41.22
2022-12-09T15:59:20.705Z,46.28
2022-12-09T16:04:22.515Z,43.78
2022-12-09T16:06:50.306Z,47.38
2022-12-09T16:09:20.170Z,44.67
2022-12-09T16:11:50.291Z,49.28
2022-12-09T16:14:18.839Z,52.83
2022-12-09T16:17:01.373Z,48.67
2022-12-09T16:19:31.056Z,47.28
2022-12-09T16:22:11.098Z,44.15
2022-12-09T16:25:13.005Z,60.97
2022-12-09T16:27:37.198Z,52.95
2022-12-09T16:30:22.266Z,49.25
2022-12-09T16:33:00.932Z,43.35
2022-12-09T16:35:45.669Z,48.00
2022-12-09T16:38:18.229Z,45.67
2022-12-09T16:40:44.679Z,43.90
2022-12-09T16:43:17.321Z,46.10
2022-12-09T16:48:12.400Z,45.80
2022-12-09T16:50:57.025Z,59.47
2022-12-09T16:53:30.039Z,50.53
2022-12-09T16:56:01.520Z,49.97
2022-12-09T16:58:30.384Z,54.85
2022-12-09T17:00:58.733Z,52.72
2022-12-09T17:03:39.960Z,52.33
2022-12-09T17:06:07.519Z,47.67
2022-12-09T17:08:34.050Z,101.30
2022-12-09T17:11:00.601Z,70.03
2022-12-09T17:13:27.723Z,57.97
2022-12-09T17:15:58.328Z,57.70
2022-12-09T17:18:26.210Z,56.45
2022-12-09T17:21:00.759Z,57.05
2022-12-09T17:23:27.535Z,58.13
2022-12-09T17:25:58.618Z,58.22
2022-12-09T17:28:29.858Z,60.95
2022-12-09T17:31:00.591Z,58.63
2022-12-09T17:33:28.994Z,57.13
2022-12-09T17:35:56.507Z,54.63
2022-12-09T17:38:23.316Z,64.78
2022-12-09T17:40:49.984Z,53.78
2022-12-09T17:43:16.526Z,50.25
2022-12-09T17:45:43.112Z,50.35
2022-12-09T17:48:10.369Z,53.17
2022-12-09T17:50:38.279Z,61.20
2022-12-09T17:53:06.899Z,56.28
2022-12-09T17:55:33.495Z,56.08
2022-12-09T17:58:00.088Z,61.08
2022-12-09T18:00:26.728Z,61.13
2022-12-09T18:02:53.292Z,57.60
2022-12-09T18:05:20.139Z,58.35
2022-12-09T18:07:46.668Z,61.75
2022-12-09T18:10:13.308Z,62.75
2022-12-09T18:12:40.132Z,56.10
2022-12-09T18:15:07.935Z,57.92
2022-12-09T18:17:34.880Z,60.45
2022-12-09T18:20:01.436Z,59.72
2022-12-09T18:22:27.991Z,60.78
2022-12-09T18:24:54.864Z,52.13
2022-12-09T18:27:21.444Z,67.32
2022-12-09T18:29:47.918Z,61.67
2022-12-09T18:32:14.582Z,59.83
2022-12-09T18:34:41.124Z,56.78
2022-12-09T18:37:07.615Z,56.55
2022-12-09T18:39:34.959Z,64.35
2022-12-09T18:42:01.570Z,59.33
2022-12-09T18:44:28.145Z,75.57
2022-12-09T18:46:54.803Z,62.47
2022-12-09T18:49:23.960Z,56.13
2022-12-09T18:51:52.488Z,51.22
2022-12-09T18:54:28.046Z,51.00
2022-12-09T18:56:55.750Z,44.20
2022-12-09T18:59:24.890Z,49.67
2022-12-09T19:01:52.066Z,47.50
2022-12-09T19:04:24.989Z,57.63
2022-12-09T19:06:54.483Z,46.90
2022-12-09T19:09:24.062Z,50.92
2022-12-09T19:11:51.712Z,51.00
2022-12-09T19:14:20.390Z,48.97
2022-12-09T19:16:47.566Z,51.33
2022-12-09T19:19:19.088Z,56.33
2022-12-09T19:21:46.253Z,48.35
2022-12-09T19:24:15.791Z,56.95
2022-12-09T19:26:42.883Z,86.85
2022-12-09T19:29:12.075Z,67.35
2022-12-09T19:31:44.053Z,56.53
2022-12-09T19:34:15.236Z,67.35
2022-12-09T19:36:43.127Z,67.10
2022-12-09T19:39:12.395Z,65.28
2022-12-09T19:41:40.340Z,59.95
2022-12-09T19:44:07.771Z,52.00
2022-12-09T19:46:35.118Z,51.15
2022-12-09T19:49:02.547Z,53.78
2022-12-09T19:51:29.607Z,49.13
2022-12-09T19:53:58.238Z,49.75
2022-12-09T19:56:25.215Z,45.55
2022-12-09T19:58:53.326Z,49.53
2022-12-09T20:01:26.011Z,45.90
2022-12-09T20:03:58.168Z,51.10
2022-12-09T20:06:25.389Z,44.05
2022-12-09T20:08:51.972Z,46.70
2022-12-09T20:11:24.200Z,51.22
2022-12-09T20:13:52.749Z,72.28
2022-12-09T20:16:22.315Z,80.85
2022-12-09T20:18:50.888Z,98.15
2022-12-09T20:21:19.524Z,72.32
2022-12-09T20:23:46.745Z,58.35
2022-12-09T20:26:15.138Z,55.67
2022-12-09T20:28:43.941Z,46.53
2022-12-09T20:31:21.084Z,50.17
2022-12-09T20:33:48.251Z,48.58
2022-12-09T20:36:18.189Z,46.50
2022-12-09T20:38:49.338Z,66.25
2022-12-09T20:41:16.743Z,60.80
2022-12-09T20:43:47.204Z,52.05
2022-12-09T20:46:17.404Z,58.05
2022-12-09T20:48:44.383Z,52.72
2022-12-09T20:51:18.489Z,47.97
2022-12-09T20:53:46.533Z,55.33
2022-12-09T20:56:14.494Z,51.22
2022-12-09T20:58:42.787Z,56.10
2022-12-09T21:01:14.384Z,50.50
2022-12-09T21:03:41.997Z,49.53
2022-12-09T21:06:09.974Z,41.70
2022-12-09T21:08:37.338Z,51.55
2022-12-09T21:11:10.314Z,44.55
2022-12-09T21:13:43.468Z,47.78
2022-12-09T21:16:15.839Z,50.75
2022-12-09T21:18:43.524Z,55.28
2022-12-09T21:21:10.088Z,56.75
2022-12-09T21:23:37.658Z,57.47
2022-12-09T21:26:09.708Z,46.38
2022-12-09T21:28:37.936Z,49.33
2022-12-09T21:31:09.762Z,43.47
2022-12-09T21:33:37.560Z,45.65
2022-12-09T21:36:06.110Z,45.38
2022-12-09T21:38:32.778Z,42.38
2022-12-09T21:41:08.189Z,49.67
2022-12-09T21:43:36.096Z,67.18
2022-12-09T21:46:14.102Z,73.78
2022-12-09T21:48:41.041Z,59.75
2022-12-09T21:51:09.747Z,55.25
2022-12-09T21:53:37.151Z,55.45
2022-12-09T21:56:14.105Z,51.70
2022-12-09T21:58:40.767Z,53.92
2022-12-09T22:01:19.442Z,47.80
2022-12-09T22:03:47.411Z,49.55
2022-12-09T22:06:15.100Z,60.33
2022-12-09T22:08:42.985Z,53.20
2022-12-09T22:11:13.719Z,49.90
2022-12-09T22:13:40.673Z,46.30
2022-12-09T22:16:13.274Z,43.40
2022-12-09T22:18:41.750Z,51.10
2022-12-09T22:21:27.448Z,53.33
2022-12-09T22:23:56.890Z,53.53
2022-12-09T22:26:24.061Z,50.78
2022-12-09T22:28:50.719Z,42.42
2022-12-09T22:31:21.282Z,50.60
2022-12-09T22:33:49.468Z,41.20
2022-12-09T22:36:17.048Z,42.03
2022-12-09T22:38:44.160Z,44.33
2022-12-09T22:41:13.519Z,44.40
2022-12-09T22:43:41.018Z,43.35
2022-12-09T22:46:13.975Z,56.33
2022-12-09T22:48:41.609Z,49.70
2022-12-09T22:51:17.007Z,48.70
2022-12-09T22:53:44.113Z,52.63
2022-12-09T22:56:12.047Z,52.10
2022-12-09T22:58:38.519Z,45.55
2022-12-09T23:01:11.294Z,54.45
2022-12-09T23:03:37.967Z,54.60
2022-12-09T23:06:05.010Z,53.63
2022-12-09T23:08:31.623Z,53.45
2022-12-09T23:11:03.162Z,48.05
2022-12-09T23:13:32.263Z,65.23
2022-12-09T23:16:03.176Z,64.88
2022-12-09T23:18:30.639Z,58.83
2022-12-09T23:21:06.526Z,57.05
2022-12-09T23:23:33.187Z,48.42
2022-12-09T23:26:09.086Z,58.15
2022-12-09T23:28:46.970Z,54.20
2022-12-09T23:31:15.316Z,50.63
2022-12-09T23:33:43.833Z,52.45
2022-12-09T23:36:13.310Z,51.03
2022-12-09T23:38:40.695Z,49.17
2022-12-09T23:41:07.637Z,47.08
2022-12-09T23:43:36.489Z,45.42
2022-12-09T23:46:15.136Z,51.65
2022-12-09T23:48:43.496Z,52.47
2022-12-09T23:51:12.090Z,50.95
2022-12-09T23:53:39.421Z,47.80
2022-12-09T23:56:07.373Z,58.20
2022-12-09T23:58:34.104Z,56.30
